createdAt,value
2022-12-22T00:00:39.009Z,97692.84
2022-12-22T00:01:58.421Z,97704.72
2022-12-22T00:03:29.730Z,97702.50
2022-12-22T00:04:50.399Z,97702.63
2022-12-22T00:06:09.625Z,97705.41
2022-12-22T00:07:27.977Z,97704.31
2022-12-22T00:08:46.463Z,97708.69
2022-12-22T00:10:04.972Z,97713.28
2022-12-22T00:11:27.223Z,97704.06
2022-12-22T00:12:45.735Z,97704.72
2022-12-22T00:14:04.185Z,97686.88
2022-12-22T00:15:30.005Z,97698.25
2022-12-22T00:16:52.668Z,97705.41
2022-12-22T00:18:11.235Z,97703.34
2022-12-22T00:19:33.164Z,97702.09
2022-12-22T00:20:51.480Z,97697.69
2022-12-22T00:22:10.776Z,97699.72
2022-12-22T00:23:29.145Z,97709.00
2022-12-22T00:24:47.572Z,97701.25
2022-12-22T00:26:06.413Z,97706.38
2022-12-22T00:27:32.725Z,97709.56
2022-12-22T00:28:52.444Z,97723.84
2022-12-22T00:30:11.066Z,97720.56
2022-12-22T00:31:30.463Z,97723.88
2022-12-22T00:32:53.445Z,97720.28
2022-12-22T00:34:12.165Z,97720.44
2022-12-22T00:35:37.665Z,97721.97
2022-12-22T00:36:56.002Z,97715.75
2022-12-22T00:38:15.322Z,97717.16
2022-12-22T00:39:33.649Z,97723.13
2022-12-22T00:40:55.877Z,97713.44
2022-12-22T00:42:14.267Z,97718.13
2022-12-22T00:43:33.847Z,97724.03
2022-12-22T00:44:52.233Z,97718.81
2022-12-22T00:46:11.805Z,97723.22
2022-12-22T00:47:39.604Z,97720.75
2022-12-22T00:49:01.160Z,97723.81
2022-12-22T00:50:21.592Z,97733.72
2022-12-22T00:51:43.566Z,97723.94
2022-12-22T00:53:02.071Z,97719.91
2022-12-22T00:54:25.362Z,97719.66
2022-12-22T00:55:48.451Z,97716.03
2022-12-22T00:57:06.866Z,97714.91
2022-12-22T00:58:34.855Z,97713.50
2022-12-22T00:59:54.405Z,97708.25
2022-12-22T01:01:12.897Z,97704.94
2022-12-22T01:02:31.674Z,97723.84
2022-12-22T01:03:50.090Z,97716.25
2022-12-22T01:05:09.382Z,97715.25
2022-12-22T01:06:28.466Z,97711.84
2022-12-22T01:07:49.745Z,97718.84
2022-12-22T01:09:08.374Z,97711.09
2022-12-22T01:10:31.077Z,97729.63
2022-12-22T01:11:51.421Z,97734.44
2022-12-22T01:13:09.887Z,97741.38
2022-12-22T01:14:30.563Z,97738.91
2022-12-22T01:15:49.951Z,97746.53
2022-12-22T01:17:08.374Z,97739.19
2022-12-22T01:18:29.341Z,97742.38
2022-12-22T01:19:48.676Z,97743.56
2022-12-22T01:21:09.818Z,97735.16
2022-12-22T01:22:34.173Z,97736.69
2022-12-22T01:23:56.926Z,97720.94
2022-12-22T01:25:17.851Z,97720.13
2022-12-22T01:26:37.208Z,97724.81
2022-12-22T01:27:55.729Z,97721.38
2022-12-22T01:29:14.411Z,97721.66
2022-12-22T01:30:33.237Z,97720.56
2022-12-22T01:31:52.458Z,97701.44
2022-12-22T01:33:10.825Z,97720.19
2022-12-22T01:34:29.614Z,97720.19
2022-12-22T01:35:50.647Z,97717.69
2022-12-22T01:37:09.832Z,97709.84
2022-12-22T01:38:28.305Z,97722.41
2022-12-22T01:39:49.412Z,97714.38
2022-12-22T01:41:09.516Z,97704.44
2022-12-22T01:42:29.796Z,97705.81
2022-12-22T01:43:50.859Z,97707.31
2022-12-22T01:45:09.224Z,97708.84
2022-12-22T01:46:40.826Z,97714.41
2022-12-22T01:48:00.147Z,97709.69
2022-12-22T01:49:18.686Z,97704.72
2022-12-22T01:50:47.603Z,97720.50
2022-12-22T01:52:06.177Z,97719.47
2022-12-22T01:53:33.554Z,97722.97
2022-12-22T01:54:55.086Z,97714.84
2022-12-22T01:56:16.116Z,97705.44
2022-12-22T01:57:34.631Z,97707.81
2022-12-22T01:59:01.996Z,97697.56
2022-12-22T02:00:22.764Z,97696.34
2022-12-22T02:01:41.271Z,97694.16
2022-12-22T02:02:59.974Z,97699.41
2022-12-22T02:04:20.692Z,97701.34
2022-12-22T02:05:39.409Z,97707.81
2022-12-22T02:07:04.181Z,97684.19
2022-12-22T02:08:39.222Z,97700.34
2022-12-22T02:10:26.378Z,97687.38
2022-12-22T02:12:09.601Z,97700.63
2022-12-22T02:13:46.051Z,97706.16
2022-12-22T02:15:19.868Z,97709.91
2022-12-22T02:16:50.276Z,97713.47
2022-12-22T02:18:27.478Z,97710.06
2022-12-22T02:20:34.373Z,97715.59
2022-12-22T02:22:13.801Z,97708.09
2022-12-22T02:24:05.008Z,97698.97
2022-12-22T02:25:36.683Z,97696.47
2022-12-22T02:27:05.622Z,97691.09
2022-12-22T02:28:29.567Z,97690.53
2022-12-22T02:29:56.573Z,97693.44
2022-12-22T02:31:14.997Z,97684.19
2022-12-22T02:32:34.268Z,97671.59
2022-12-22T02:33:52.846Z,97678.53
2022-12-22T02:35:11.528Z,97677.31
2022-12-22T02:36:46.378Z,97674.66
2022-12-22T02:38:22.417Z,97670.63
2022-12-22T02:39:59.753Z,97670.75
2022-12-22T02:41:38.896Z,97668.78
2022-12-22T02:43:15.208Z,97693.13
2022-12-22T02:44:54.562Z,97687.34
2022-12-22T02:46:29.333Z,97701.19
2022-12-22T02:48:03.475Z,97703.38
2022-12-22T02:49:35.545Z,97703.50
2022-12-22T02:51:05.992Z,97699.50
2022-12-22T02:52:33.584Z,97701.31
2022-12-22T02:53:54.762Z,97696.91
2022-12-22T02:55:15.028Z,97704.22
2022-12-22T02:56:34.935Z,97700.78
2022-12-22T02:57:53.415Z,97704.19
2022-12-22T02:59:14.432Z,97706.28
2022-12-22T03:00:33.439Z,97699.25
2022-12-22T03:01:55.254Z,97701.72
2022-12-22T03:03:14.003Z,97698.13
2022-12-22T03:04:32.603Z,97691.34
2022-12-22T03:05:51.007Z,97680.97
2022-12-22T03:07:10.188Z,97686.78
2022-12-22T03:08:28.527Z,97686.38
2022-12-22T03:09:46.964Z,97668.94
2022-12-22T03:11:05.473Z,97690.09
2022-12-22T03:12:24.674Z,97676.69
2022-12-22T03:13:43.071Z,97680.13
2022-12-22T03:15:04.335Z,97675.03
2022-12-22T03:16:23.104Z,97673.22
2022-12-22T03:17:42.405Z,97684.25
2022-12-22T03:19:00.847Z,97677.91
2022-12-22T03:20:21.070Z,97660.06
2022-12-22T03:21:39.470Z,97687.03
2022-12-22T03:22:58.777Z,97682.88
2022-12-22T03:24:17.275Z,97678.75
2022-12-22T03:25:35.821Z,97682.06
2022-12-22T03:26:41.947Z,97675.44
2022-12-22T03:27:46.136Z,97668.13
2022-12-22T03:28:52.436Z,97668.00
2022-12-22T03:29:58.440Z,97672.72
2022-12-22T03:31:08.573Z,97662.22
2022-12-22T03:32:12.019Z,97661.09
2022-12-22T03:33:18.828Z,97663.56
2022-12-22T03:34:22.393Z,97669.09
2022-12-22T03:35:28.936Z,97667.00
2022-12-22T03:36:32.386Z,97664.09
2022-12-22T03:37:38.842Z,97660.81
2022-12-22T03:38:43.199Z,97666.03
2022-12-22T03:39:49.130Z,97662.88
2022-12-22T03:40:52.937Z,97660.75
2022-12-22T03:42:13.142Z,97655.78
2022-12-22T03:43:33.467Z,97654.38
2022-12-22T03:44:52.760Z,97646.22
2022-12-22T03:46:14.623Z,97657.44
2022-12-22T03:47:20.709Z,97648.59
2022-12-22T03:48:24.123Z,97646.94
2022-12-22T03:49:30.137Z,97643.88
2022-12-22T03:50:34.514Z,97644.31
2022-12-22T03:51:44.433Z,97638.78
2022-12-22T03:52:47.809Z,97647.63
2022-12-22T03:53:53.847Z,97649.72
2022-12-22T03:54:57.241Z,97656.06
2022-12-22T03:56:07.776Z,97654.81
2022-12-22T03:57:11.526Z,97649.44
2022-12-22T03:58:17.540Z,97660.47
2022-12-22T03:59:21.486Z,97655.25
2022-12-22T04:00:27.858Z,97644.75
2022-12-22T04:01:39.895Z,97660.22
2022-12-22T04:02:46.082Z,97655.91
2022-12-22T04:03:50.627Z,97646.41
2022-12-22T04:04:56.695Z,97651.63
2022-12-22T04:06:00.149Z,97654.97
2022-12-22T04:07:07.142Z,97652.72
2022-12-22T04:08:10.586Z,97653.47
2022-12-22T04:09:17.547Z,97655.00
2022-12-22T04:10:36.091Z,97654.16
2022-12-22T04:11:54.428Z,97646.69
2022-12-22T04:12:58.686Z,97640.94
2022-12-22T04:14:05.307Z,97642.81
2022-12-22T04:15:10.869Z,97642.00
2022-12-22T04:16:16.910Z,97648.38
2022-12-22T04:17:25.515Z,97644.06
2022-12-22T04:18:29.653Z,97643.56
2022-12-22T04:19:36.299Z,97642.31
2022-12-22T04:20:39.694Z,97641.59
2022-12-22T04:21:46.074Z,97639.28
2022-12-22T04:22:49.984Z,97641.38
2022-12-22T04:23:57.219Z,97644.81
2022-12-22T04:25:00.622Z,97642.59
2022-12-22T04:26:06.658Z,97638.59
2022-12-22T04:27:10.034Z,97648.97
2022-12-22T04:28:16.122Z,97639.88
2022-12-22T04:29:20.516Z,97642.63
2022-12-22T04:30:26.512Z,97638.63
2022-12-22T04:31:30.181Z,97647.59
2022-12-22T04:32:39.268Z,97644.69
2022-12-22T04:33:42.957Z,97644.97
2022-12-22T04:34:49.785Z,97644.28
2022-12-22T04:35:53.205Z,97645.25
2022-12-22T04:37:09.894Z,97649.13
2022-12-22T04:38:18.258Z,97638.75
2022-12-22T04:39:24.285Z,97643.47
2022-12-22T04:40:28.518Z,97640.16
2022-12-22T04:41:34.680Z,97640.41
2022-12-22T04:42:38.127Z,97636.69
2022-12-22T04:43:44.195Z,97643.31
2022-12-22T04:44:47.553Z,97642.19
2022-12-22T04:45:56.335Z,97642.50
2022-12-22T04:46:59.781Z,97636.84
2022-12-22T04:48:09.455Z,97637.66
2022-12-22T04:49:12.931Z,97634.34
2022-12-22T04:50:19.207Z,97636.38
2022-12-22T04:51:23.417Z,97634.03
2022-12-22T04:52:29.672Z,97625.22
2022-12-22T04:53:33.848Z,97633.50
2022-12-22T04:54:39.902Z,97629.22
2022-12-22T04:55:46.921Z,97630.03
2022-12-22T04:56:54.223Z,97628.78
2022-12-22T04:57:57.587Z,97634.03
2022-12-22T04:59:03.538Z,97622.84
2022-12-22T05:00:10.070Z,97619.97
2022-12-22T05:01:20.577Z,97629.22
2022-12-22T05:02:25.164Z,97625.47
2022-12-22T05:03:33.881Z,97611.66
2022-12-22T05:04:37.281Z,97600.31
2022-12-22T05:05:43.535Z,97611.94
2022-12-22T05:06:46.942Z,97610.28
2022-12-22T05:07:53.752Z,97612.91
2022-12-22T05:08:57.213Z,97607.22
2022-12-22T05:10:03.245Z,97607.22
2022-12-22T05:11:07.527Z,97606.69
2022-12-22T05:12:25.810Z,97602.69
2022-12-22T05:13:32.698Z,97601.16
2022-12-22T05:14:36.024Z,97603.22
2022-12-22T05:15:42.199Z,97604.31
2022-12-22T05:16:45.665Z,97605.31
2022-12-22T05:17:52.068Z,97603.78
2022-12-22T05:18:58.929Z,97605.72
2022-12-22T05:20:04.882Z,97603.38
2022-12-22T05:21:15.293Z,97597.13
2022-12-22T05:22:18.924Z,97603.91
2022-12-22T05:23:24.884Z,97598.13
2022-12-22T05:24:29.145Z,97594.09
2022-12-22T05:25:35.752Z,97604.59
2022-12-22T05:26:39.182Z,97586.50
2022-12-22T05:27:45.758Z,97594.25
2022-12-22T05:28:51.827Z,97599.34
2022-12-22T05:29:56.026Z,97597.72
2022-12-22T05:31:07.680Z,97585.69
2022-12-22T05:32:11.087Z,97589.97
2022-12-22T05:33:17.019Z,97598.00
2022-12-22T05:34:22.919Z,97592.75
2022-12-22T05:35:29.720Z,97592.31
2022-12-22T05:36:35.682Z,97586.63
2022-12-22T05:37:39.080Z,97589.84
2022-12-22T05:38:45.467Z,97579.31
2022-12-22T05:39:48.787Z,97577.25
2022-12-22T05:41:01.534Z,97578.22
2022-12-22T05:42:07.308Z,97573.66
2022-12-22T05:43:13.246Z,97577.94
2022-12-22T05:44:16.563Z,97577.41
2022-12-22T05:45:25.805Z,97571.31
2022-12-22T05:46:30.017Z,97576.97
2022-12-22T05:47:36.175Z,97575.34
2022-12-22T05:48:40.464Z,97575.47
2022-12-22T05:49:49.150Z,97579.06
2022-12-22T05:50:52.489Z,97581.94
2022-12-22T05:51:59.416Z,97574.63
2022-12-22T05:53:02.737Z,97582.34
2022-12-22T05:54:08.788Z,97577.38
2022-12-22T05:55:14.182Z,97571.88
2022-12-22T05:56:20.156Z,97571.59
2022-12-22T05:57:24.351Z,97574.06
2022-12-22T05:58:30.314Z,97576.03
2022-12-22T05:59:33.693Z,97582.91
2022-12-22T06:00:39.747Z,97576.97
2022-12-22T06:01:43.205Z,97580.28
2022-12-22T06:02:50.253Z,97577.38
2022-12-22T06:03:59.789Z,97557.91
2022-12-22T06:05:10.628Z,97568.25
2022-12-22T06:06:14.004Z,97573.94
2022-12-22T06:07:20.330Z,97571.44
2022-12-22T06:08:28.119Z,97580.28
2022-12-22T06:09:31.445Z,97573.94
2022-12-22T06:10:37.487Z,97571.59
2022-12-22T06:11:40.931Z,97581.53
2022-12-22T06:12:47.175Z,97576.03
2022-12-22T06:13:51.352Z,97576.56
2022-12-22T06:14:58.033Z,97583.75
2022-12-22T06:16:01.513Z,97573.69
2022-12-22T06:17:07.506Z,97579.47
2022-12-22T06:18:13.558Z,97566.75
2022-12-22T06:19:17.777Z,97578.34
2022-12-22T06:20:26.519Z,97576.56
2022-12-22T06:21:29.895Z,97571.59
2022-12-22T06:22:37.481Z,97584.00
2022-12-22T06:23:40.751Z,97577.41
2022-12-22T06:24:47.640Z,97579.31
2022-12-22T06:26:01.059Z,97582.50
2022-12-22T06:27:04.636Z,97573.94
2022-12-22T06:28:10.765Z,97576.69
2022-12-22T06:29:14.141Z,97583.44
2022-12-22T06:30:22.600Z,97585.25
2022-12-22T06:31:29.361Z,97578.06
2022-12-22T06:32:38.495Z,97579.31
2022-12-22T06:33:41.858Z,97572.97
2022-12-22T06:34:48.020Z,97576.84
2022-12-22T06:35:59.134Z,97580.16
2022-12-22T06:37:05.562Z,97576.13
2022-12-22T06:38:09.112Z,97571.59
2022-12-22T06:39:15.632Z,97575.16
2022-12-22T06:40:19.242Z,97569.38
2022-12-22T06:41:38.286Z,97570.47
2022-12-22T06:42:59.584Z,97572.13
2022-12-22T06:44:10.184Z,97568.13
2022-12-22T06:45:13.746Z,97570.47
2022-12-22T06:46:19.769Z,97568.00
2022-12-22T06:47:24.030Z,97555.13
2022-12-22T06:48:29.992Z,97565.50
2022-12-22T06:49:33.449Z,97570.47
2022-12-22T06:50:39.753Z,97571.19
2022-12-22T06:51:46.345Z,97566.75
2022-12-22T06:52:53.133Z,97573.81
2022-12-22T06:53:56.511Z,97573.53
2022-12-22T06:55:02.458Z,97579.88
2022-12-22T06:56:07.057Z,97571.88
2022-12-22T06:57:13.283Z,97546.28
2022-12-22T06:58:17.602Z,97573.50
2022-12-22T06:59:23.650Z,97561.78
2022-12-22T07:00:27.137Z,97558.31
2022-12-22T07:01:33.376Z,97560.13
2022-12-22T07:02:40.225Z,97556.97
2022-12-22T07:03:44.675Z,97557.22
2022-12-22T07:04:50.723Z,97551.72
2022-12-22T07:05:54.089Z,97552.13
2022-12-22T07:07:02.725Z,97557.50
2022-12-22T07:08:09.078Z,97556.41
2022-12-22T07:09:16.820Z,97552.25
2022-12-22T07:10:40.945Z,97547.69
2022-12-22T07:11:46.972Z,97548.81
2022-12-22T07:12:53.036Z,97549.50
2022-12-22T07:13:58.734Z,97545.75
2022-12-22T07:15:05.647Z,97544.91
2022-12-22T07:16:12.145Z,97549.75
2022-12-22T07:17:18.153Z,97544.53
2022-12-22T07:18:22.739Z,97545.06
2022-12-22T07:19:28.799Z,97544.09
2022-12-22T07:20:32.997Z,97552.69
2022-12-22T07:21:39.036Z,97545.88
2022-12-22T07:22:45.035Z,97546.16
2022-12-22T07:23:50.982Z,97557.50
2022-12-22T07:24:55.060Z,97549.50
2022-12-22T07:26:02.307Z,97540.09
2022-12-22T07:27:08.408Z,97543.09
2022-12-22T07:28:16.691Z,97545.59
2022-12-22T07:29:27.199Z,97548.22
2022-12-22T07:30:30.957Z,97540.06
2022-12-22T07:31:37.821Z,97546.72
2022-12-22T07:32:41.267Z,97539.81
2022-12-22T07:33:47.363Z,97531.66
2022-12-22T07:34:50.757Z,97534.69
2022-12-22T07:36:07.368Z,97542.56
2022-12-22T07:37:15.676Z,97541.91
2022-12-22T07:38:21.656Z,97543.25
2022-12-22T07:39:27.847Z,97544.09
2022-12-22T07:40:38.007Z,97542.31
2022-12-22T07:41:59.855Z,97545.59
2022-12-22T07:43:07.186Z,97545.06
2022-12-22T07:44:10.605Z,97534.00
2022-12-22T07:45:19.563Z,97536.63
2022-12-22T07:46:25.092Z,97543.53
2022-12-22T07:47:35.176Z,97542.84
2022-12-22T07:48:54.882Z,97541.75
2022-12-22T07:50:15.721Z,97538.00
2022-12-22T07:51:21.700Z,97531.25
2022-12-22T07:52:27.695Z,97539.38
2022-12-22T07:53:36.855Z,97535.22
2022-12-22T07:54:43.822Z,97536.19
2022-12-22T07:55:47.172Z,97549.19
2022-12-22T07:56:53.934Z,97541.16
2022-12-22T07:58:00.469Z,97537.66
2022-12-22T07:59:04.383Z,97533.94
2022-12-22T08:00:13.017Z,97534.34
2022-12-22T08:01:19.531Z,97529.53
2022-12-22T08:02:23.103Z,97534.50
2022-12-22T08:03:29.683Z,97529.25
2022-12-22T08:04:36.136Z,97536.56
2022-12-22T08:05:43.454Z,97533.41
2022-12-22T08:06:47.242Z,97532.28
2022-12-22T08:07:55.545Z,97532.53
2022-12-22T08:09:05.510Z,97534.03
2022-12-22T08:10:13.611Z,97515.13
2022-12-22T08:11:18.531Z,97534.31
2022-12-22T08:12:25.072Z,97527.25
2022-12-22T08:13:31.812Z,97531.22
2022-12-22T08:14:37.780Z,97535.88
2022-12-22T08:15:43.763Z,97540.28
2022-12-22T08:16:48.200Z,97544.03
2022-12-22T08:17:54.173Z,97544.13
2022-12-22T08:18:58.394Z,97553.81
2022-12-22T08:20:04.619Z,97543.22
2022-12-22T08:21:12.163Z,97544.84
2022-12-22T08:22:16.588Z,97547.91
2022-12-22T08:23:23.421Z,97546.25
2022-12-22T08:24:32.997Z,97543.50
2022-12-22T08:25:37.140Z,97541.81
2022-12-22T08:26:49.480Z,97540.19
2022-12-22T08:27:58.496Z,97539.50
2022-12-22T08:29:11.789Z,97529.09
2022-12-22T08:30:18.542Z,97532.72
2022-12-22T08:31:30.771Z,97534.34
2022-12-22T08:32:37.692Z,97524.09
2022-12-22T08:33:42.029Z,97527.59
2022-12-22T08:34:49.502Z,97535.97
2022-12-22T08:35:54.541Z,97535.22
2022-12-22T08:37:06.044Z,97537.56
2022-12-22T08:38:11.914Z,97528.97
2022-12-22T08:39:22.956Z,97526.94
2022-12-22T08:40:36.844Z,97524.97
2022-12-22T08:41:52.938Z,97529.66
2022-12-22T08:43:05.805Z,97531.31
2022-12-22T08:44:09.317Z,97517.16
2022-12-22T08:45:16.221Z,97516.34
2022-12-22T08:46:19.723Z,97519.19
2022-12-22T08:47:26.659Z,97515.81
2022-12-22T08:48:30.344Z,97520.78
2022-12-22T08:49:36.392Z,97508.16
2022-12-22T08:50:43.485Z,97509.38
2022-12-22T08:51:50.872Z,97501.63
2022-12-22T08:52:56.964Z,97506.72
2022-12-22T08:54:05.455Z,97503.72
2022-12-22T08:55:14.527Z,97498.09
2022-12-22T08:56:21.382Z,97498.97
2022-12-22T08:57:27.370Z,97506.19
2022-12-22T08:58:33.437Z,97503.41
2022-12-22T08:59:36.933Z,97507.63
2022-12-22T09:00:43.058Z,97508.25
2022-12-22T09:01:51.267Z,97513.38
2022-12-22T09:02:57.762Z,97513.06
2022-12-22T09:04:01.769Z,97514.47
2022-12-22T09:05:08.692Z,97510.25
2022-12-22T09:06:12.111Z,97515.38
2022-12-22T09:07:18.919Z,97493.25
2022-12-22T09:08:22.317Z,97509.88
2022-12-22T09:09:29.312Z,97497.25
2022-12-22T09:10:33.004Z,97492.88
2022-12-22T09:11:42.606Z,97498.81
2022-12-22T09:12:51.558Z,97495.06
2022-12-22T09:13:58.953Z,97491.25
2022-12-22T09:15:06.341Z,97481.81
2022-12-22T09:16:13.722Z,97482.81
2022-12-22T09:17:19.754Z,97481.03
2022-12-22T09:18:23.989Z,97473.53
2022-12-22T09:19:30.270Z,97477.25
2022-12-22T09:20:36.247Z,97476.75
2022-12-22T09:21:42.277Z,97471.97
2022-12-22T09:22:48.307Z,97467.56
2022-12-22T09:23:53.036Z,97465.28
2022-12-22T09:24:59.319Z,97463.25
2022-12-22T09:26:11.646Z,97469.53
2022-12-22T09:27:20.236Z,97459.31
2022-12-22T09:28:23.716Z,97451.41
2022-12-22T09:29:30.602Z,97461.97
2022-12-22T09:30:33.969Z,97468.72
2022-12-22T09:31:42.232Z,97461.47
2022-12-22T09:32:48.321Z,97462.78
2022-12-22T09:33:54.976Z,97449.25
2022-12-22T09:35:01.831Z,97459.81
2022-12-22T09:36:08.372Z,97452.03
2022-12-22T09:37:18.667Z,97450.38
2022-12-22T09:38:22.046Z,97455.66
2022-12-22T09:39:29.487Z,97450.69
2022-12-22T09:40:35.164Z,97448.38
2022-12-22T09:41:49.642Z,97444.38
2022-12-22T09:42:55.706Z,97446.69
2022-12-22T09:44:07.117Z,97449.59
2022-12-22T09:45:20.397Z,97451.63
2022-12-22T09:46:32.512Z,97443.41
2022-12-22T09:47:42.087Z,97446.41
2022-12-22T09:48:45.522Z,97437.56
2022-12-22T09:49:53.286Z,97436.38
2022-12-22T09:50:56.768Z,97450.16
2022-12-22T09:52:08.052Z,97432.81
2022-12-22T09:53:24.900Z,97432.59
2022-12-22T09:54:32.928Z,97431.28
2022-12-22T09:55:43.858Z,97427.44
2022-12-22T09:56:50.029Z,97430.50
2022-12-22T09:57:57.340Z,97427.81
2022-12-22T09:59:04.231Z,97420.25
2022-12-22T10:00:19.525Z,97425.25
2022-12-22T10:01:59.474Z,97424.56
2022-12-22T10:03:30.575Z,97422.09
2022-12-22T10:04:59.758Z,97425.78
2022-12-22T10:06:17.795Z,97415.59
2022-12-22T10:07:34.993Z,97417.59
2022-12-22T10:08:43.819Z,97409.94
2022-12-22T10:09:50.867Z,97408.44
2022-12-22T10:10:59.819Z,97403.91
2022-12-22T10:12:09.974Z,97405.56
2022-12-22T10:13:22.697Z,97409.25
2022-12-22T10:14:39.142Z,97407.94
2022-12-22T10:15:45.572Z,97410.22
2022-12-22T10:16:49.133Z,97402.25
2022-12-22T10:18:10.984Z,97409.84
2022-12-22T10:19:18.872Z,97405.91
2022-12-22T10:20:30.094Z,97409.22
2022-12-22T10:21:47.024Z,97406.28
2022-12-22T10:22:58.997Z,97410.38
2022-12-22T10:24:20.076Z,97399.50
2022-12-22T10:26:17.261Z,97403.16
2022-12-22T10:27:05.990Z,97397.31
2022-12-22T10:28:25.455Z,97398.22
2022-12-22T10:29:34.669Z,97396.88
2022-12-22T10:30:43.992Z,97394.63
2022-12-22T10:32:04.306Z,97389.94
2022-12-22T10:33:12.364Z,97381.66
2022-12-22T10:34:21.484Z,97385.41
2022-12-22T10:35:25.030Z,97386.72
2022-12-22T10:36:36.080Z,97380.50
2022-12-22T10:37:44.765Z,97359.66
2022-12-22T10:39:08.285Z,97375.00
2022-12-22T10:40:21.745Z,97363.44
2022-12-22T10:41:34.135Z,97372.50
2022-12-22T10:42:38.639Z,97374.34
2022-12-22T10:43:55.844Z,97362.72
2022-12-22T10:45:02.717Z,97364.78
2022-12-22T10:46:07.429Z,97359.88
2022-12-22T10:47:20.805Z,97355.38
2022-12-22T10:48:35.448Z,97352.16
2022-12-22T10:49:47.960Z,97355.06
2022-12-22T10:50:51.743Z,97360.84
2022-12-22T10:52:12.978Z,97357.09
2022-12-22T10:53:19.492Z,97353.25
2022-12-22T10:54:36.336Z,97356.81
2022-12-22T10:55:39.873Z,97362.69
2022-12-22T10:56:45.950Z,97363.81
2022-12-22T10:57:53.380Z,97353.78
2022-12-22T10:59:24.198Z,97362.09
2022-12-22T11:00:35.018Z,97361.03
2022-12-22T11:01:38.866Z,97358.50
2022-12-22T11:02:54.588Z,97341.94
2022-12-22T11:04:17.905Z,97357.78
2022-12-22T11:05:24.740Z,97352.94
2022-12-22T11:06:31.615Z,97345.84
2022-12-22T11:07:43.291Z,97347.28
2022-12-22T11:08:51.618Z,97354.31
2022-12-22T11:09:58.044Z,97353.50
2022-12-22T11:11:13.146Z,97355.31
2022-12-22T11:12:39.023Z,97347.69
2022-12-22T11:14:06.690Z,97350.84
2022-12-22T11:15:32.527Z,97346.56
2022-12-22T11:16:53.237Z,97346.78
2022-12-22T11:18:19.936Z,97343.56
2022-12-22T11:19:50.290Z,97343.06
2022-12-22T11:21:10.497Z,97342.84
2022-12-22T11:22:37.507Z,97338.44
2022-12-22T11:24:04.949Z,97339.28
2022-12-22T11:25:41.565Z,97340.66
2022-12-22T11:27:16.389Z,97333.97
2022-12-22T11:28:57.703Z,97335.47
2022-12-22T11:30:15.780Z,97331.50
2022-12-22T11:31:48.540Z,97323.06
2022-12-22T11:33:23.304Z,97327.28
2022-12-22T11:34:58.135Z,97327.94
2022-12-22T11:36:10.095Z,97321.03
2022-12-22T11:37:40.089Z,97322.84
2022-12-22T11:38:58.345Z,97319.56
2022-12-22T11:40:31.290Z,97326.84
2022-12-22T11:42:02.521Z,97317.66
2022-12-22T11:43:28.942Z,97318.66
2022-12-22T11:44:45.963Z,97317.31
2022-12-22T11:46:20.324Z,97319.94
2022-12-22T11:47:51.877Z,97319.66
2022-12-22T11:49:26.698Z,97318.72
2022-12-22T11:51:02.119Z,97320.38
2022-12-22T11:52:37.012Z,97316.78
2022-12-22T11:54:15.251Z,97324.91
2022-12-22T11:55:33.096Z,97325.56
2022-12-22T11:56:45.902Z,97314.72
2022-12-22T11:58:18.735Z,97323.44
2022-12-22T11:59:48.674Z,97310.09
2022-12-22T12:01:26.830Z,97317.50
2022-12-22T12:03:32.358Z,97314.94
2022-12-22T12:05:19.614Z,97309.69
2022-12-22T12:06:47.195Z,97299.75
2022-12-22T12:08:06.066Z,97301.09
2022-12-22T12:09:39.502Z,97305.91
2022-12-22T12:10:54.168Z,97293.81
2022-12-22T12:12:16.329Z,97298.69
2022-12-22T12:13:40.672Z,97294.75
2022-12-22T12:15:10.710Z,97293.09
2022-12-22T12:16:39.919Z,97284.38
2022-12-22T12:18:24.004Z,97288.19
2022-12-22T12:20:24.510Z,97288.06
2022-12-22T12:21:38.175Z,97278.03
2022-12-22T12:23:10.657Z,97255.69
2022-12-22T12:24:48.345Z,97279.16
2022-12-22T12:26:10.959Z,97279.03
2022-12-22T12:27:48.204Z,97283.91
2022-12-22T12:29:16.779Z,97279.91
2022-12-22T12:30:38.206Z,97278.97
2022-12-22T12:31:57.222Z,97278.16
2022-12-22T12:33:16.950Z,97275.00
2022-12-22T12:34:25.907Z,97274.75
2022-12-22T12:35:57.173Z,97271.88
2022-12-22T12:37:14.961Z,97281.50
2022-12-22T12:39:07.036Z,97285.16
2022-12-22T12:40:34.585Z,97277.78
2022-12-22T12:41:56.568Z,97281.91
2022-12-22T12:43:08.526Z,97279.78
2022-12-22T12:44:28.117Z,97282.25
2022-12-22T12:45:41.476Z,97290.03
2022-12-22T12:47:06.738Z,97288.22
2022-12-22T12:48:42.179Z,97293.31
2022-12-22T12:50:34.683Z,97283.13
2022-12-22T12:51:53.031Z,97290.38
2022-12-22T12:53:20.257Z,97289.88
2022-12-22T12:54:47.418Z,97291.88
2022-12-22T12:56:05.640Z,97285.25
2022-12-22T12:57:32.439Z,97282.63
2022-12-22T12:58:58.349Z,97274.72
2022-12-22T13:00:04.576Z,97266.13
2022-12-22T13:01:13.656Z,97270.25
2022-12-22T13:02:43.753Z,97267.75
2022-12-22T13:04:04.623Z,97268.41
2022-12-22T13:05:36.801Z,97270.72
2022-12-22T13:06:53.787Z,97264.44
2022-12-22T13:08:23.337Z,97257.69
2022-12-22T13:09:49.985Z,97264.78
2022-12-22T13:12:10.553Z,97271.72
2022-12-22T13:12:58.355Z,97259.69
2022-12-22T13:14:04.917Z,97270.06
2022-12-22T13:15:34.351Z,97243.69
2022-12-22T13:16:42.921Z,97278.16
2022-12-22T13:17:52.151Z,97274.69
2022-12-22T13:19:01.428Z,97270.88
2022-12-22T13:20:18.093Z,97264.16
2022-12-22T13:22:57.718Z,97251.59
2022-12-22T13:24:29.603Z,97258.34
2022-12-22T13:25:51.598Z,97249.44
2022-12-22T13:27:07.050Z,97251.59
2022-12-22T13:28:20.024Z,97252.75
2022-12-22T13:29:42.427Z,97253.22
2022-12-22T13:30:57.131Z,97253.22
2022-12-22T13:32:17.113Z,97257.53
2022-12-22T13:33:35.404Z,97241.38
2022-12-22T13:35:28.978Z,97266.91
2022-12-22T13:36:27.400Z,97259.00
2022-12-22T13:37:30.917Z,97247.66
2022-12-22T13:38:39.620Z,97246.66
2022-12-22T13:40:02.260Z,97249.75
2022-12-22T13:41:26.790Z,97252.41
2022-12-22T13:42:36.084Z,97244.31
2022-12-22T13:43:47.559Z,97245.47
2022-12-22T13:44:52.964Z,97255.81
2022-12-22T13:46:06.123Z,97240.69
2022-12-22T13:47:15.785Z,97239.69
2022-12-22T13:48:30.713Z,97240.66
2022-12-22T13:50:07.337Z,97233.69
2022-12-22T13:51:11.146Z,97237.97
2022-12-22T13:52:17.674Z,97241.25
2022-12-22T13:55:01.791Z,97245.44
2022-12-22T13:56:15.577Z,97237.19
2022-12-22T13:57:26.172Z,97246.03
2022-12-22T13:58:39.294Z,97252.59
2022-12-22T13:59:46.872Z,97248.19
2022-12-22T14:01:06.937Z,97241.41
2022-12-22T14:02:20.964Z,97248.97
2022-12-22T14:03:57.948Z,97244.16
2022-12-22T14:05:10.747Z,97253.81
2022-12-22T14:06:30.433Z,97245.63
2022-12-22T14:07:34.890Z,97249.84
2022-12-22T14:08:40.935Z,97238.50
2022-12-22T14:09:49.125Z,97243.25
2022-12-22T14:10:58.476Z,97241.09
2022-12-22T14:12:17.125Z,97233.13
2022-12-22T14:13:33.486Z,97229.38
2022-12-22T14:14:46.288Z,97231.97
2022-12-22T14:16:05.442Z,97224.34
2022-12-22T14:17:29.597Z,97225.34
2022-12-22T14:18:42.886Z,97232.25
2022-12-22T14:19:55.572Z,97226.66
2022-12-22T14:21:00.041Z,97224.84
2022-12-22T14:22:12.704Z,97220.34
2022-12-22T14:23:27.860Z,97231.31
2022-12-22T14:24:46.331Z,97216.53
2022-12-22T14:25:56.741Z,97221.94
2022-12-22T14:27:03.317Z,97220.75
2022-12-22T14:28:21.377Z,97213.38
2022-12-22T14:29:31.347Z,97208.78
2022-12-22T14:30:47.096Z,97215.75
2022-12-22T14:31:55.869Z,97209.56